Flight Track Log - Related Links

Times and Time Zones

All times are in EST time to prevent confusion due to time zone crossing. See the CCA4393 flight status page for this flight to view local times or setup timezone preferences in your user account.

Time Position Orientation Groundspeed Altitude Reporting Facility
EST Latitude Longitude Course Direction KTS MPH feet Rate Location/Type
Mon 06:43:00 PM 29.1574 107.2784 135° Southeast  Level Estimated
Mon 06:44:00 PM 29.0769 107.3689 136° Southeast  Level Estimated
Mon 06:45:00 PM 28.9963 107.4593 136° Southeast  Level Estimated
Mon 06:46:00 PM 28.9156 107.5495 136° Southeast  Level Estimated
Mon 06:47:00 PM 28.8349 107.6396 136° Southeast  Level Estimated
Mon 06:48:00 PM 28.7542 107.7295 136° Southeast  Level Estimated
Mon 06:49:00 PM 28.6733 107.8193 136° Southeast  Level Estimated
Mon 06:50:00 PM 28.5924 107.9089 136° Southeast  Level Estimated
Mon 06:51:00 PM 28.5115 107.9984 136° Southeast  Level Estimated
Mon 06:52:00 PM 28.4305 108.0878 136° Southeast  Level Estimated
Mon 06:53:00 PM 28.3494 108.1770 136° Southeast  Level Estimated
Mon 06:54:00 PM 28.2683 108.2662 136° Southeast  Level Estimated
Mon 06:55:00 PM 28.1871 108.3551 136° Southeast  Level Estimated
Mon 06:56:00 PM 28.1059 108.4439 136° Southeast  Level Estimated
Mon 06:57:00 PM 28.0246 108.5326 136° Southeast  Level Estimated
Mon 06:58:00 PM 27.9432 108.6212 136° Southeast  Level Estimated
Mon 06:59:00 PM 27.8618 108.7096 136° Southeast  Level Estimated
Mon 07:00:00 PM 27.7804 108.7979 136° Southeast  Level Estimated
Mon 07:01:00 PM 27.6989 108.8861 136° Southeast  Level Estimated
Mon 07:02:00 PM 27.6173 108.9741 136° Southeast  Level Estimated
Mon 07:03:00 PM 27.5357 109.0620 136° Southeast  Level Estimated
Mon 07:04:00 PM 27.4540 109.1498 136° Southeast  Level Estimated
Mon 07:05:00 PM 27.3722 109.2374 136° Southeast  Level Estimated
Mon 07:06:00 PM 27.2904 109.3249 136° Southeast  Level Estimated
Mon 07:07:00 PM 27.2086 109.4123 136° Southeast  Level Estimated
Mon 07:08:00 PM 27.1267 109.4995 137° Southeast  Level Estimated
Mon 07:09:00 PM 27.0447 109.5867 137° Southeast  Level Estimated
Mon 07:10:00 PM 26.9627 109.6737 137° Southeast  Level Estimated
Mon 07:11:00 PM 26.8807 109.7606 137° Southeast  Level Estimated
Mon 07:12:00 PM 26.7985 109.8473 137° Southeast  Level Estimated
Mon 07:13:00 PM 26.7164 109.9339 137° Southeast  Level Estimated
Mon 07:14:00 PM 26.6341 110.0204 137° Southeast  Level Estimated
Mon 07:15:00 PM 26.5519 110.1068 137° Southeast  Level Estimated
Mon 07:16:00 PM 26.4695 110.1930 137° Southeast  Level Estimated
Mon 07:17:00 PM 26.3872 110.2792 137° Southeast  Level Estimated
Mon 07:18:00 PM 26.3047 110.3652 137° Southeast  Level Estimated
Mon 07:19:00 PM 26.2223 110.4510 137° Southeast  Level Estimated
Mon 07:20:00 PM 26.1397 110.5368 137° Southeast  Level Estimated
Mon 07:21:00 PM 26.0571 110.6224 137° Southeast  Level Estimated
Mon 07:22:00 PM 25.9745 110.7079 137° Southeast  Level Estimated
Mon 07:23:00 PM 25.8918 110.7933 137° Southeast  Level Estimated
Mon 07:24:00 PM 25.8091 110.8786 137° Southeast  Level Estimated
Mon 07:25:00 PM 25.7263 110.9638 137° Southeast  Level Estimated
Mon 07:26:00 PM 25.6435 111.0488 137° Southeast  Level Estimated
Mon 07:27:00 PM 25.5606 111.1337 137° Southeast  Level Estimated
Mon 07:28:00 PM 25.4777 111.2185 137° Southeast  Level Estimated
Mon 07:29:00 PM 25.3947 111.3032 137° Southeast  Level Estimated
Mon 07:30:00 PM 25.3117 111.3878 137° Southeast  Level Estimated
Mon 07:31:00 PM 25.2286 111.4722 137° Southeast  Level Estimated
Mon 07:32:00 PM 25.1455 111.5565 137° Southeast  Level Estimated
Mon 07:33:00 PM 25.0623 111.6408 137° Southeast  Level Estimated
Mon 07:34:00 PM 24.9791 111.7249 137° Southeast  Level Estimated
Mon 07:35:00 PM 24.8958 111.8089 138° Southeast  Level Estimated
Mon 07:36:00 PM 24.8125 111.8928 138° Southeast  Level Estimated
Mon 07:37:00 PM 24.7292 111.9765 138° Southeast  Level Estimated
Mon 07:38:00 PM 24.6457 112.0602 138° Southeast  Level Estimated
Mon 07:39:00 PM 24.5623 112.1437 138° Southeast  Level Estimated
Mon 07:40:00 PM 24.4788 112.2271 138° Southeast  Level Estimated
Mon 07:41:00 PM 24.3953 112.3105 138° Southeast  Level Estimated
Mon 07:42:00 PM 24.3117 112.3937 138° Southeast  Level Estimated
Mon 07:43:00 PM 24.2280 112.4768 138° Southeast  Level Estimated
Mon 07:44:00 PM 24.1444 112.5598 138° Southeast  Level Estimated
Mon 07:45:00 PM 24.0606 112.6427 138° Southeast  Level Estimated
Mon 07:46:00 PM 23.9769 112.7254 138° Southeast  Level Estimated
Mon 07:47:00 PM 23.8930 112.8081 138° Southeast  Level Estimated
Mon 07:48:00 PM 23.8092 112.8907 138° Southeast  Level Estimated
Mon 07:49:00 PM 23.7253 112.9731 138° Southeast  Level Estimated
Mon 07:50:00 PM 23.6413 113.0555 138° Southeast  Level Estimated
Mon 07:51:00 PM 23.5574 113.1377 138° Southeast  Level Estimated
Mon 07:52:00 PM 23.4733 113.2199 138° Southeast  Level Estimated
Mon 07:53:00 PM 23.3924 113.2988 138° Southeast  Level Estimated
Mon 07:54:00 PM 23.3924 113.2988 223° Southwest  Level Estimated
Mon 07:55:00 PM 23.3924 113.2988 223° Southwest  Level Estimated
Mon 07:56:00 PM 23.3924 113.2988 223° Southwest  Level Estimated
Mon 07:57:00 PM 23.3924 113.2988 223° Southwest  Level Estimated
Mon 07:58:00 PM 23.3924 113.2988 223° Southwest  Level Estimated
Mon 07:59:00 PM 23.3924 113.2988 223° Southwest  Level Estimated
Mon 08:00:00 PM 23.3924 113.2988 223° Southwest  Level Estimated
Mon 08:01:00 PM 23.3924 113.2988 223° Southwest  Level Estimated
Mon 08:02:00 PM 23.3924 113.2988 223° Southwest  Level Estimated
Mon 08:03:00 PM 23.3924 113.2988 223° Southwest  Level Estimated
Mon 08:04:00 PM 23.3924 113.2988 223° Southwest  Level Estimated
Mon 08:05:00 PM 23.3924 113.2988 223° Southwest  Level Estimated
Mon 08:06:00 PM 23.3924 113.2988 223° Southwest  Level Estimated
Mon 08:07:00 PM 23.3924 113.2988 223° Southwest  Level Estimated
Mon 08:08:00 PM 23.3924 113.2988 223° Southwest  Level Estimated
Mon 08:09:00 PM 23.3924 113.2988 223° Southwest  Level Estimated

Login

Don't have an account? Register now (free) for customized features, flight alerts, and more!